Time;durP1;ratioP1;P1;durP2;ratioP2;P2;SDS_P1;SDS_P2;PMS_P1;PMS_P2;Temp;Humidity;BMP_temperature;BMP_pressure;BME280_temperature;BME280_humidity;BME280_pressure;Samples;Min_cycle;Max_cycle;Signal;HPM_P1;HPM_P2
2023/12/05 00:03:07;;;;;;;;;20.33;19.33;;;;;22.31;28.07;102122.74;245346;1183;71756;-73
2023/12/05 00:08:13;;;;;;;;;24.75;23.50;;;;;22.30;28.02;102115.91;245329;1180;73085;-73
2023/12/05 00:13:18;;;;;;;;;22.25;20.50;;;;;22.30;28.01;102112.88;245356;1183;73008;-73
2023/12/05 00:18:24;;;;;;;;;19.75;18.50;;;;;22.29;28.25;102120.41;245304;1182;74184;-73
2023/12/05 00:23:28;;;;;;;;;20.25;20.00;;;;;22.28;28.04;102119.95;245362;1182;73949;-73
2023/12/05 00:28:32;;;;;;;;;21.00;21.00;;;;;22.28;28.08;102117.81;245375;1180;73355;-73
2023/12/05 00:33:37;;;;;;;;;18.33;16.67;;;;;22.27;28.04;102115.02;245350;1178;72857;-73
2023/12/05 00:38:41;;;;;;;;;19.00;18.00;;;;;22.27;28.07;102112.89;245324;1180;72576;-73
2023/12/05 00:43:45;;;;;;;;;17.75;17.75;;;;;22.26;28.09;102112.02;245326;1177;73198;-73
2023/12/05 00:48:50;;;;;;;;;18.25;17.75;;;;;22.26;28.05;102113.70;245332;1183;73744;-74
2023/12/05 00:53:54;;;;;;;;;19.50;18.50;;;;;22.26;28.18;102119.17;245379;1182;73464;-73
2023/12/05 00:58:58;;;;;;;;;21.75;20.75;;;;;22.26;28.18;102122.32;245324;1183;73653;-74
2023/12/05 01:04:03;;;;;;;;;19.50;18.75;;;;;22.25;28.22;102118.79;245304;1183;73327;-74
2023/12/05 01:09:10;;;;;;;;;18.00;18.00;;;;;22.25;28.17;102117.16;245378;1182;72940;-74
2023/12/05 01:14:14;;;;;;;;;21.25;20.50;;;;;22.24;28.14;102107.38;245368;1177;73446;-74
2023/12/05 01:19:19;;;;;;;;;16.50;16.25;;;;;22.24;28.31;102103.44;245395;1183;73687;-74
2023/12/05 01:24:23;;;;;;;;;17.75;16.50;;;;;22.23;28.33;102092.66;245301;1183;72046;-74
2023/12/05 01:29:27;;;;;;;;;19.25;19.25;;;;;22.23;28.07;102074.91;245344;1191;73365;-74
2023/12/05 01:34:32;;;;;;;;;17.67;17.67;;;;;22.22;28.28;102069.20;245334;1182;73094;-74
2023/12/05 01:39:36;;;;;;;;;22.25;19.00;;;;;22.22;28.24;102063.95;245359;1182;73499;-74
2023/12/05 01:44:42;;;;;;;;;19.75;18.00;;;;;22.21;28.05;102052.77;245323;1177;73013;-74
2023/12/05 01:49:47;;;;;;;;;26.25;24.75;;;;;22.20;27.99;102044.30;245383;1182;73811;-74
2023/12/05 01:54:52;;;;;;;;;21.75;21.75;;;;;22.20;28.19;102042.36;245320;1183;73514;-74
2023/12/05 01:59:56;;;;;;;;;24.00;20.75;;;;;22.19;28.30;102039.17;245340;1183;73436;-74
2023/12/05 02:05:00;;;;;;;;;18.50;18.50;;;;;22.19;28.30;102033.25;245351;1184;73633;-74
2023/12/05 02:10:06;;;;;;;;;21.67;20.00;;;;;22.18;28.28;102024.79;245311;1183;74318;-74
2023/12/05 02:15:10;;;;;;;;;19.25;19.25;;;;;22.18;28.24;102019.55;245352;1177;73756;-74
2023/12/05 02:20:24;;;;;;;;;18.50;17.50;;;;;22.18;28.31;102013.01;245328;1182;73249;-74
2023/12/05 02:25:46;;;;;;;;;19.25;18.25;;;;;22.18;28.26;102009.73;245349;1183;73418;-73
2023/12/05 02:30:50;;;;;;;;;21.25;21.25;;;;;22.18;28.33;102002.23;245372;1183;72969;-74
2023/12/05 02:36:03;;;;;;;;;19.75;19.75;;;;;22.18;28.23;101996.48;245396;1183;73360;-74
2023/12/05 02:41:20;;;;;;;;;17.75;17.00;;;;;22.18;28.13;102005.91;245327;1183;73529;-74
2023/12/05 02:46:25;;;;;;;;;18.50;18.00;;;;;22.17;28.28;101998.59;245360;1183;73311;-74
2023/12/05 02:51:29;;;;;;;;;20.50;20.50;;;;;22.15;28.41;101988.73;245329;1180;73050;-74
2023/12/05 02:56:44;;;;;;;;;18.00;18.00;;;;;22.15;28.10;101995.64;245349;1182;73140;-74
2023/12/05 03:01:48;;;;;;;;;19.50;18.25;;;;;22.15;28.15;101996.23;245308;1182;72697;-73
2023/12/05 03:06:52;;;;;;;;;18.50;18.25;;;;;22.15;28.33;101996.77;245323;1177;73627;-73
2023/12/05 03:11:58;;;;;;;;;19.33;19.33;;;;;22.14;28.20;101991.77;245406;1178;73362;-73
2023/12/05 03:17:02;;;;;;;;;18.25;18.25;;;;;22.14;28.19;101986.23;245379;1183;73250;-74
2023/12/05 03:22:07;;;;;;;;;16.75;15.25;;;;;22.13;28.34;101983.71;245348;1180;73195;-73
2023/12/05 03:27:11;;;;;;;;;21.67;21.67;;;;;22.13;28.17;101973.20;245308;1179;73815;-74
2023/12/05 03:32:16;;;;;;;;;17.25;17.25;;;;;22.13;28.28;101960.73;245384;1178;73084;-74
2023/12/05 03:37:20;;;;;;;;;18.00;17.25;;;;;22.12;28.35;101956.42;245371;1183;72855;-74
2023/12/05 03:42:25;;;;;;;;;17.50;17.25;;;;;22.11;28.29;101954.36;245332;1183;73459;-73
2023/12/05 03:47:30;;;;;;;;;17.75;17.25;;;;;22.12;28.23;101947.39;245367;1184;73356;-74
2023/12/05 03:52:34;;;;;;;;;16.00;16.00;;;;;22.10;28.26;101940.63;245331;1180;72949;-74
2023/12/05 03:57:39;;;;;;;;;22.00;20.67;;;;;22.09;28.20;101937.72;245318;1179;72959;-73
2023/12/05 04:02:43;;;;;;;;;20.75;19.75;;;;;22.02;28.10;101931.88;245316;1183;73592;-73
2023/12/05 04:07:49;;;;;;;;;21.75;21.75;;;;;21.99;27.64;101931.74;245307;1183;73284;-73
2023/12/05 04:12:53;;;;;;;;;25.25;22.50;;;;;22.02;27.25;101924.71;245332;1183;73672;-73
2023/12/05 04:17:58;;;;;;;;;26.50;23.25;;;;;22.12;26.76;101920.72;245338;1183;73692;-73
2023/12/05 04:23:03;;;;;;;;;25.00;22.25;;;;;22.26;26.24;101922.20;245334;1183;73097;-73
2023/12/05 04:28:07;;;;;;;;;20.50;20.50;;;;;22.45;26.00;101912.98;245387;1183;73612;-73
2023/12/05 04:33:12;;;;;;;;;23.00;19.67;;;;;22.66;25.62;101902.68;245192;1182;73142;-73
2023/12/05 04:38:19;;;;;;;;;20.33;20.33;;;;;22.87;25.29;101895.66;245413;1177;73003;-74
2023/12/05 04:43:24;;;;;;;;;19.50;19.50;;;;;23.04;25.10;101881.44;245388;1183;74541;-73
2023/12/05 04:48:28;;;;;;;;;20.50;20.50;;;;;23.16;24.75;101883.88;245345;1178;73031;-73
2023/12/05 04:53:33;;;;;;;;;21.50;19.75;;;;;23.27;24.49;101875.83;245340;1177;73225;-73
2023/12/05 04:58:38;;;;;;;;;21.25;20.25;;;;;23.36;24.23;101868.38;245320;1183;73054;-73
2023/12/05 05:03:42;;;;;;;;;23.00;22.50;;;;;23.43;24.14;101863.10;245272;1183;72976;-72
2023/12/05 05:08:48;;;;;;;;;22.00;22.00;;;;;23.49;23.87;101854.63;245349;1177;72957;-72
2023/12/05 05:13:52;;;;;;;;;21.25;21.00;;;;;23.55;23.72;101847.52;245340;1183;73086;-73
2023/12/05 05:19:01;;;;;;;;;21.75;20.50;;;;;23.59;23.50;101849.11;245363;1183;74505;-72
2023/12/05 05:24:06;;;;;;;;;26.25;23.25;;;;;23.64;23.42;101846.88;245316;1183;72978;-73
2023/12/05 05:29:10;;;;;;;;;19.25;19.25;;;;;23.66;23.37;101838.72;245285;1182;72847;-73
2023/12/05 05:34:13;;;;;;;;;20.25;18.50;;;;;23.69;23.26;101837.10;245245;1182;74201;-73
2023/12/05 05:39:18;;;;;;;;;23.50;22.00;;;;;23.67;23.40;101843.17;245043;1183;73544;-72
2023/12/05 05:44:23;;;;;;;;;22.75;22.50;;;;;23.69;24.11;101844.45;244929;1177;73668;-73
2023/12/05 05:49:29;;;;;;;;;22.00;20.33;;;;;23.76;24.70;101843.48;245038;1183;74228;-75
2023/12/05 05:54:36;;;;;;;;;21.75;21.50;;;;;23.84;25.30;101831.00;244532;1180;72226;-76
2023/12/05 05:59:44;;;;;;;;;23.33;18.67;;;;;24.00;26.70;101832.64;244860;1180;73661;-75
2023/12/05 06:04:49;;;;;;;;;20.67;17.67;;;;;24.24;27.78;101824.20;244950;1180;73663;-76
2023/12/05 06:10:01;;;;;;;;;21.25;20.00;;;;;24.52;28.21;101820.27;244948;1183;73251;-78
2023/12/05 06:15:06;;;;;;;;;22.25;19.00;;;;;24.76;28.43;101815.55;245230;1179;73619;-77
2023/12/05 06:20:11;;;;;;;;;20.25;20.00;;;;;24.96;28.43;101819.54;244924;1180;73223;-78
2023/12/05 06:25:16;;;;;;;;;23.00;19.50;;;;;25.14;28.38;101812.08;245271;1179;73148;-78
2023/12/05 06:30:26;;;;;;;;;21.50;21.50;;;;;25.28;28.25;101817.19;245271;1183;73436;-77
2023/12/05 06:35:32;;;;;;;;;16.50;16.50;;;;;25.42;28.46;101812.28;245021;1179;73543;-77
2023/12/05 06:40:37;;;;;;;;;22.00;20.25;;;;;25.57;28.61;101810.41;245175;1183;73496;-78
2023/12/05 06:45:42;;;;;;;;;17.33;17.33;;;;;25.67;28.56;101797.52;244825;1180;73266;-78
2023/12/05 06:50:47;;;;;;;;;21.50;20.00;;;;;25.77;28.43;101776.03;245024;1183;73502;-75
2023/12/05 06:55:52;;;;;;;;;19.67;18.33;;;;;25.85;28.77;101772.98;245147;1183;72619;-74
2023/12/05 07:00:58;;;;;;;;;22.25;19.50;;;;;26.02;28.49;101778.66;245187;1177;73070;-73
2023/12/05 07:06:05;;;;;;;;;17.00;16.33;;;;;25.87;27.49;101783.58;245232;1179;72960;-78
2023/12/05 07:11:10;;;;;;;;;15.50;15.50;;;;;25.88;27.97;101782.31;245306;1187;73162;-77
2023/12/05 07:16:15;;;;;;;;;17.50;17.50;;;;;25.97;28.05;101783.63;245256;1179;73515;-78
2023/12/05 07:21:19;;;;;;;;;16.25;15.50;;;;;26.08;28.52;101779.57;245136;1183;73066;-77
2023/12/05 07:26:24;;;;;;;;;19.00;17.25;;;;;26.14;28.69;101780.48;245263;1177;73962;-77
2023/12/05 07:31:29;;;;;;;;;16.25;15.00;;;;;26.14;28.52;101770.25;245156;1183;73729;-77
2023/12/05 07:36:33;;;;;;;;;14.50;14.50;;;;;26.16;28.62;101770.23;245256;1180;73233;-74
2023/12/05 07:41:39;;;;;;;;;17.00;15.75;;;;;26.22;28.62;101748.70;244341;1177;74147;-75
2023/12/05 07:46:45;;;;;;;;;18.50;16.50;;;;;26.26;28.27;101738.38;245449;1183;73105;-79
2023/12/05 07:51:49;;;;;;;;;15.50;15.00;;;;;26.27;28.30;101741.66;245323;1183;73673;-81
2023/12/05 07:56:53;;;;;;;;;16.75;16.50;;;;;26.29;27.74;101749.74;245313;1182;74496;-76
2023/12/05 08:01:58;;;;;;;;;20.00;18.50;;;;;25.97;25.91;101755.66;244778;1177;73642;-76
2023/12/05 08:07:04;;;;;;;;;16.00;16.00;;;;;25.68;27.18;101750.23;244326;1177;74259;-74
2023/12/05 08:12:17;;;;;;;;;17.50;15.75;;;;;25.76;27.90;101727.53;244195;1179;74005;-75
2023/12/05 08:17:23;;;;;;;;;17.00;16.50;;;;;25.88;28.16;101714.30;244242;1183;73852;-75
2023/12/05 08:22:27;;;;;;;;;23.00;20.00;;;;;26.00;28.16;101711.33;244287;1183;73901;-74
2023/12/05 08:27:33;;;;;;;;;15.00;15.00;;;;;26.09;28.51;101709.88;244248;1180;73564;-75
2023/12/05 08:32:39;;;;;;;;;16.00;16.00;;;;;26.18;28.23;101702.86;244233;1178;73895;-76
2023/12/05 08:37:44;;;;;;;;;21.00;20.00;;;;;26.24;28.62;101706.12;244239;1177;73775;-75
2023/12/05 08:42:48;;;;;;;;;17.00;15.50;;;;;26.29;28.49;101702.78;244198;1183;73306;-75
2023/12/05 08:47:54;;;;;;;;;17.33;17.33;;;;;26.34;28.71;101697.09;244206;1187;74266;-73
2023/12/05 08:52:59;;;;;;;;;15.75;15.75;;;;;26.38;28.70;101695.77;244340;1183;73444;-74
2023/12/05 08:58:07;;;;;;;;;19.25;17.75;;;;;26.48;28.87;101681.91;244226;1183;73427;-75
2023/12/05 09:03:16;;;;;;;;;18.00;17.00;;;;;26.47;28.25;101653.67;244183;1177;75258;-73
2023/12/05 09:08:21;;;;;;;;;19.50;18.00;;;;;26.20;27.94;101645.05;244134;1180;73623;-73
2023/12/05 09:13:26;;;;;;;;;16.00;16.00;;;;;25.98;27.99;101656.21;244117;1182;73241;-74
2023/12/05 09:18:31;;;;;;;;;18.25;18.25;;;;;25.82;27.86;101663.02;244352;1182;72890;-74
2023/12/05 09:23:36;;;;;;;;;21.00;20.25;;;;;25.68;27.68;101650.29;244461;1177;72683;-73
2023/12/05 09:28:41;;;;;;;;;18.75;18.50;;;;;25.57;27.34;101640.62;244426;1177;73446;-75
2023/12/05 09:33:46;;;;;;;;;23.00;19.67;;;;;25.43;27.03;101638.69;244277;1177;72992;-72
2023/12/05 09:38:51;;;;;;;;;19.00;17.25;;;;;25.33;26.87;101631.36;244256;1180;72319;-75
2023/12/05 09:43:58;;;;;;;;;18.75;17.00;;;;;25.28;26.58;101611.72;244222;1183;73630;-73
2023/12/05 09:49:06;;;;;;;;;17.25;17.25;;;;;25.19;26.35;101616.85;244273;1183;72755;-75
2023/12/05 09:54:11;;;;;;;;;20.25;20.25;;;;;25.13;26.41;101603.73;244335;1180;73869;-76
2023/12/05 09:59:16;;;;;;;;;21.67;18.33;;;;;25.13;26.49;101598.92;244287;1182;72971;-73
2023/12/05 10:04:22;;;;;;;;;19.00;19.00;;;;;25.13;26.34;101599.34;244257;1180;73122;-74
2023/12/05 10:09:30;;;;;;;;;20.67;17.33;;;;;25.13;26.31;101594.97;244323;1177;73797;-73
2023/12/05 10:14:34;;;;;;;;;16.25;16.25;;;;;25.10;26.18;101592.06;244304;1180;74130;-72
2023/12/05 10:19:38;;;;;;;;;16.75;15.75;;;;;25.09;25.90;101587.75;244337;1177;73502;-73
2023/12/05 10:24:44;;;;;;;;;16.33;16.33;;;;;25.08;25.73;101586.23;244142;1182;73747;-73
2023/12/05 10:29:48;;;;;;;;;19.75;18.25;;;;;25.06;25.81;101580.05;244362;1179;73742;-73
2023/12/05 10:34:53;;;;;;;;;19.67;16.33;;;;;25.09;25.66;101560.47;244299;1183;72404;-75
2023/12/05 10:39:58;;;;;;;;;20.50;18.25;;;;;25.05;25.10;101560.83;244278;1179;73186;-75
2023/12/05 10:45:07;;;;;;;;;19.75;19.25;;;;;24.73;23.67;101560.04;244329;1177;73113;-76
2023/12/05 10:50:11;;;;;;;;;17.75;17.00;;;;;24.54;23.40;101558.56;244278;1177;74036;-75
2023/12/05 10:55:24;;;;;;;;;16.00;15.50;;;;;24.40;23.23;101549.39;244317;1183;73419;-76
2023/12/05 11:00:29;;;;;;;;;15.25;15.25;;;;;24.35;23.14;101536.88;244364;1177;72788;-74
2023/12/05 11:05:34;;;;;;;;;15.00;15.00;;;;;24.35;23.08;101534.67;244094;1180;73381;-75
2023/12/05 11:10:39;;;;;;;;;15.75;13.50;;;;;24.44;23.18;101540.59;244052;1177;72588;-75
2023/12/05 11:15:45;;;;;;;;;12.75;12.75;;;;;24.55;23.30;101537.23;245224;1182;73202;-75
2023/12/05 11:20:58;;;;;;;;;15.00;15.00;;;;;24.67;23.41;101525.01;245347;1178;73552;-75
2023/12/05 11:26:35;;;;;;;;;14.67;14.67;;;;;24.81;23.40;101509.16;244512;1177;73924;-76
2023/12/05 11:32:39;;;;;;;;;19.25;17.00;;;;;24.94;24.25;101505.20;244268;1183;73190;-75
2023/12/05 11:38:14;;;;;;;;;17.25;15.25;;;;;24.73;22.99;101506.33;244151;1180;73439;-74
2023/12/05 11:43:18;;;;;;;;;19.67;16.33;;;;;24.39;22.73;101504.40;244044;1190;73283;-75
2023/12/05 11:48:25;;;;;;;;;19.25;18.75;;;;;24.16;22.78;101499.25;244086;1182;74030;-75
2023/12/05 11:53:30;;;;;;;;;17.25;16.50;;;;;23.99;23.01;101494.81;243715;1177;72721;-74
2023/12/05 11:58:35;;;;;;;;;17.75;17.75;;;;;24.01;23.14;101500.06;243670;1180;74259;-72
2023/12/05 12:03:54;;;;;;;;;15.00;14.75;;;;;24.17;23.15;101500.92;243402;1184;73254;-76
2023/12/05 12:08:59;;;;;;;;;18.00;14.50;;;;;24.34;23.26;101499.82;243281;1179;73066;-75
2023/12/05 12:14:16;;;;;;;;;19.00;18.25;;;;;24.43;23.27;101489.26;243451;1177;72087;-75
2023/12/05 12:19:20;;;;;;;;;16.00;15.00;;;;;24.48;23.30;101487.41;243855;1177;74810;-75
2023/12/05 12:24:25;;;;;;;;;12.00;12.00;;;;;24.48;23.61;101481.16;243750;1182;73597;-75
2023/12/05 12:29:30;;;;;;;;;12.25;12.25;;;;;24.44;23.93;101475.17;243706;1180;73760;-75
2023/12/05 12:34:35;;;;;;;;;15.00;15.00;;;;;24.40;24.35;101472.23;245241;1183;73727;-76
2023/12/05 12:39:43;;;;;;;;;15.75;14.75;;;;;24.44;24.62;101465.83;245160;1180;73476;-76
2023/12/05 12:44:47;;;;;;;;;15.00;14.00;;;;;24.45;24.70;101459.02;245270;1182;74110;-76
2023/12/05 12:49:51;;;;;;;;;16.00;13.25;;;;;24.43;24.75;101459.85;245212;1180;73013;-75
2023/12/05 12:54:55;;;;;;;;;13.67;13.67;;;;;24.38;24.83;101460.48;245221;1183;73665;-75
2023/12/05 13:00:01;;;;;;;;;12.75;12.75;;;;;24.34;25.02;101462.17;245278;1180;73813;-75
2023/12/05 13:05:32;;;;;;;;;15.00;15.00;;;;;24.29;25.14;101460.80;245310;1178;73648;-75
2023/12/05 13:10:37;;;;;;;;;15.67;13.67;;;;;24.24;25.39;101454.45;245293;1177;73449;-75
2023/12/05 13:15:43;;;;;;;;;12.00;12.00;;;;;24.18;25.40;101453.53;245302;1182;72341;-76
2023/12/05 13:20:52;;;;;;;;;12.75;10.00;;;;;24.14;25.68;101451.88;245342;1177;73640;-75
2023/12/05 13:25:57;;;;;;;;;14.50;14.00;;;;;24.08;25.79;101449.55;245330;1183;71939;-75
2023/12/05 13:31:00;;;;;;;;;15.25;13.75;;;;;24.04;25.92;101456.84;245307;1177;73632;-75
2023/12/05 13:36:06;;;;;;;;;12.75;12.75;;;;;24.00;26.16;101449.33;245301;1183;72880;-75
2023/12/05 13:41:10;;;;;;;;;13.50;11.75;;;;;23.96;26.18;101454.00;245320;1183;73199;-74
2023/12/05 13:46:14;;;;;;;;;14.50;12.25;;;;;23.91;26.12;101458.80;245324;1178;72941;-76
2023/12/05 13:51:18;;;;;;;;;11.75;11.50;;;;;23.87;26.22;101461.31;245344;1183;74035;-75
2023/12/05 13:56:27;;;;;;;;;13.25;12.00;;;;;23.85;26.27;101459.52;245299;1177;73139;-75
2023/12/05 14:01:30;;;;;;;;;12.50;11.50;;;;;23.81;26.41;101461.54;245352;1183;73351;-75
2023/12/05 14:06:35;;;;;;;;;10.50;10.50;;;;;23.76;26.65;101462.88;245299;1184;73052;-75
2023/12/05 14:11:43;;;;;;;;;13.75;11.25;;;;;23.75;26.76;101464.02;245285;1182;74152;-75
2023/12/05 14:16:47;;;;;;;;;11.50;11.50;;;;;23.72;26.94;101453.47;245276;1177;73373;-75
2023/12/05 14:21:53;;;;;;;;;14.25;14.25;;;;;23.69;26.82;101450.56;245309;1182;72796;-76
2023/12/05 14:26:57;;;;;;;;;12.75;12.25;;;;;23.66;26.82;101449.52;245279;1178;73249;-75
2023/12/05 14:32:01;;;;;;;;;12.00;10.50;;;;;23.63;26.92;101439.70;245334;1182;73129;-75
2023/12/05 14:37:05;;;;;;;;;15.25;11.50;;;;;23.60;27.01;101443.10;245336;1183;73501;-76
2023/12/05 14:42:16;;;;;;;;;14.75;10.50;;;;;23.56;26.98;101444.83;245359;1183;73817;-76
2023/12/05 14:47:21;;;;;;;;;14.75;13.50;;;;;23.55;27.09;101441.34;245308;1183;73847;-75
2023/12/05 14:52:25;;;;;;;;;13.25;13.25;;;;;23.53;27.17;101437.42;245328;1183;73861;-75
2023/12/05 14:57:29;;;;;;;;;11.50;11.50;;;;;23.49;27.22;101429.10;245347;1182;73664;-75
2023/12/05 15:02:36;;;;;;;;;12.00;12.00;;;;;23.44;27.30;101423.73;245328;1183;73186;-76
2023/12/05 15:07:43;;;;;;;;;11.67;11.67;;;;;23.42;27.46;101417.69;245367;1183;73100;-75
2023/12/05 15:12:54;;;;;;;;;13.33;13.33;;;;;23.41;27.30;101417.98;245349;1184;73957;-75
2023/12/05 15:17:59;;;;;;;;;12.25;12.25;;;;;23.40;27.55;101412.82;245389;1180;72124;-75
2023/12/05 15:23:03;;;;;;;;;12.67;12.33;;;;;23.38;27.46;101408.85;245336;1182;72972;-76
2023/12/05 15:28:11;;;;;;;;;15.00;15.00;;;;;23.36;27.67;101419.08;245352;1183;73509;-75
2023/12/05 15:33:15;;;;;;;;;14.00;11.00;;;;;23.33;27.59;101414.86;245324;1184;73439;-75
2023/12/05 15:38:19;;;;;;;;;12.00;10.00;;;;;23.31;27.63;101409.41;245328;1177;73278;-74
2023/12/05 15:43:22;;;;;;;;;14.50;13.00;;;;;23.28;27.48;101416.99;245344;1178;73716;-74
2023/12/05 15:48:27;;;;;;;;;10.75;10.75;;;;;23.26;27.61;101421.46;245337;1177;73630;-73
2023/12/05 15:53:48;;;;;;;;;12.00;12.00;;;;;23.23;27.62;101415.85;245302;1180;71854;-75
2023/12/05 15:58:52;;;;;;;;;11.75;11.00;;;;;23.24;27.58;101411.75;245333;1183;73712;-75
2023/12/05 16:03:56;;;;;;;;;12.75;12.75;;;;;23.27;27.62;101406.84;245377;1182;73723;-75
2023/12/05 16:09:00;;;;;;;;;13.50;12.75;;;;;23.27;27.65;101408.93;245422;1184;73686;-75
2023/12/05 16:14:04;;;;;;;;;13.50;12.25;;;;;23.27;27.65;101407.93;245445;1177;73354;-75
2023/12/05 16:19:09;;;;;;;;;12.50;12.50;;;;;23.25;27.52;101412.48;245394;1182;73370;-74
2023/12/05 16:24:13;;;;;;;;;16.50;15.00;;;;;23.24;27.68;101406.83;245382;1183;73386;-75
2023/12/05 16:29:17;;;;;;;;;10.25;10.25;;;;;23.23;27.85;101415.86;245370;1182;73628;-75
2023/12/05 16:34:21;;;;;;;;;13.75;13.75;;;;;23.24;27.63;101416.73;245355;1183;73535;-75
2023/12/05 16:39:26;;;;;;;;;13.00;13.00;;;;;23.22;27.76;101416.20;245342;1177;73758;-75
2023/12/05 16:44:30;;;;;;;;;13.33;13.33;;;;;23.21;27.80;101417.46;245364;1177;72783;-75
2023/12/05 16:49:34;;;;;;;;;13.67;13.67;;;;;23.21;27.85;101421.98;245323;1183;73319;-75
2023/12/05 16:54:40;;;;;;;;;14.25;14.25;;;;;23.20;27.89;101420.08;245295;1182;73722;-75
2023/12/05 16:59:45;;;;;;;;;13.50;12.00;;;;;23.18;27.78;101416.30;245198;1183;72673;-74
2023/12/05 17:04:49;;;;;;;;;13.75;13.75;;;;;23.19;27.94;101421.01;245421;1182;72676;-74
2023/12/05 17:09:54;;;;;;;;;17.00;13.25;;;;;23.18;27.94;101413.41;245412;1179;73028;-74
2023/12/05 17:15:00;;;;;;;;;13.00;13.00;;;;;23.17;27.97;101406.48;245401;1180;73114;-75
2023/12/05 17:20:08;;;;;;;;;11.33;11.33;;;;;23.16;27.99;101406.74;245330;1183;73720;-75
2023/12/05 17:25:12;;;;;;;;;11.75;11.50;;;;;23.16;28.17;101407.34;245288;1182;72583;-75
2023/12/05 17:30:16;;;;;;;;;10.50;10.50;;;;;23.15;28.18;101404.63;245303;1182;72820;-75
2023/12/05 17:35:20;;;;;;;;;12.00;12.00;;;;;23.14;28.13;101407.23;245362;1183;74331;-74
2023/12/05 17:40:24;;;;;;;;;14.25;12.75;;;;;23.14;28.15;101404.38;245341;1183;73045;-75
2023/12/05 17:45:28;;;;;;;;;11.00;11.00;;;;;23.12;28.05;101404.42;245373;1178;73910;-75
2023/12/05 17:50:33;;;;;;;;;12.67;12.67;;;;;23.12;28.31;101396.16;245361;1183;73779;-76
2023/12/05 17:55:37;;;;;;;;;11.75;11.75;;;;;23.12;28.29;101395.98;245383;1180;73030;-75
2023/12/05 18:00:41;;;;;;;;;14.25;12.75;;;;;23.11;28.14;101396.24;245345;1182;73174;-75
2023/12/05 18:05:45;;;;;;;;;13.33;13.00;;;;;23.11;28.39;101401.16;245354;1183;73866;-75
2023/12/05 18:10:49;;;;;;;;;15.00;13.00;;;;;23.10;28.32;101396.20;245415;1183;72847;-75
2023/12/05 18:15:53;;;;;;;;;12.00;12.00;;;;;23.09;28.35;101394.34;245318;1182;73603;-75
2023/12/05 18:20:57;;;;;;;;;10.25;10.25;;;;;23.08;28.46;101387.21;245360;1184;73511;-76
2023/12/05 18:26:02;;;;;;;;;11.75;11.75;;;;;23.08;28.40;101384.90;245353;1177;72986;-75
2023/12/05 18:31:06;;;;;;;;;12.50;11.75;;;;;23.07;28.40;101384.02;245287;1183;74627;-75
2023/12/05 18:36:10;;;;;;;;;11.50;11.50;;;;;23.07;28.48;101387.55;245303;1182;72452;-75
2023/12/05 18:41:14;;;;;;;;;10.00;10.00;;;;;23.06;28.52;101392.62;245315;1182;72731;-75
2023/12/05 18:46:18;;;;;;;;;10.00;9.25;;;;;23.05;28.45;101390.17;245301;1181;73864;-74
2023/12/05 18:51:22;;;;;;;;;10.00;10.00;;;;;23.05;28.54;101388.50;245315;1180;73790;-74
2023/12/05 18:56:27;;;;;;;;;10.50;10.50;;;;;23.04;28.60;101382.11;245353;1183;73148;-75
2023/12/05 19:01:31;;;;;;;;;15.00;12.25;;;;;23.03;28.52;101374.90;245364;1183;72775;-75
2023/12/05 19:06:39;;;;;;;;;13.75;13.75;;;;;23.02;28.78;101374.57;245354;1183;74133;-75
2023/12/05 19:11:43;;;;;;;;;13.25;10.75;;;;;23.02;28.49;101379.61;245387;1179;73034;-75
2023/12/05 19:16:47;;;;;;;;;14.00;14.00;;;;;22.98;28.74;101380.52;243529;1180;73671;-74
2023/12/05 19:21:51;;;;;;;;;11.75;11.75;;;;;22.83;28.95;101376.42;243515;1183;73068;-75
2023/12/05 19:26:57;;;;;;;;;10.50;10.50;;;;;22.74;29.16;101376.48;243633;1180;73762;-75
2023/12/05 19:32:01;;;;;;;;;13.67;13.67;;;;;22.70;29.24;101373.62;243706;1177;73150;-75
2023/12/05 19:37:05;;;;;;;;;14.00;14.00;;;;;22.67;29.37;101370.86;243537;1177;74185;-75
2023/12/05 19:42:15;;;;;;;;;13.00;11.25;;;;;22.63;29.33;101366.14;243536;1177;73549;-75
2023/12/05 19:47:22;;;;;;;;;14.50;13.25;;;;;22.64;29.27;101366.30;245315;1179;73387;-75
2023/12/05 19:52:27;;;;;;;;;11.25;11.25;;;;;22.76;29.35;101367.39;245303;1182;71758;-75
2023/12/05 19:57:31;;;;;;;;;11.00;11.00;;;;;22.84;29.00;101369.76;245369;1182;73434;-75
2023/12/05 20:02:36;;;;;;;;;10.75;9.50;;;;;22.88;29.14;101374.58;245333;1177;73100;-75
2023/12/05 20:07:40;;;;;;;;;11.25;11.25;;;;;22.90;29.20;101376.30;245309;1177;73284;-75
2023/12/05 20:12:44;;;;;;;;;10.00;10.00;;;;;22.91;28.98;101371.85;245334;1183;73867;-75
2023/12/05 20:17:48;;;;;;;;;10.25;10.25;;;;;22.91;28.91;101360.73;245365;1183;73650;-75
2023/12/05 20:22:52;;;;;;;;;7.75;7.75;;;;;22.92;28.98;101356.92;245355;1182;73357;-76
2023/12/05 20:27:56;;;;;;;;;10.50;10.50;;;;;22.93;28.89;101350.55;245403;1177;73700;-76
2023/12/05 20:33:02;;;;;;;;;16.00;14.00;;;;;22.91;29.11;101344.46;245360;1183;73498;-75
2023/12/05 20:38:08;;;;;;;;;10.50;10.50;;;;;22.92;28.92;101341.86;245342;1180;73530;-75
2023/12/05 20:43:12;;;;;;;;;11.00;11.00;;;;;22.93;28.85;101341.98;245374;1177;72834;-75
2023/12/05 20:48:16;;;;;;;;;13.50;11.75;;;;;22.91;28.99;101339.21;245368;1183;74141;-76
2023/12/05 20:53:21;;;;;;;;;13.25;12.75;;;;;22.92;29.15;101335.40;245331;1182;73324;-76
2023/12/05 20:58:25;;;;;;;;;9.25;9.25;;;;;22.91;29.07;101334.56;245329;1182;73401;-75
2023/12/05 21:03:29;;;;;;;;;9.50;9.50;;;;;22.90;28.99;101332.79;245357;1183;74164;-75
2023/12/05 21:08:34;;;;;;;;;11.50;11.50;;;;;22.90;28.99;101324.52;245386;1182;73796;-75
2023/12/05 21:13:57;;;;;;;;;12.33;12.33;;;;;22.90;29.00;101322.71;245344;1177;73225;-75
2023/12/05 21:19:01;;;;;;;;;9.33;9.33;;;;;22.89;29.19;101318.61;245330;1183;74239;-75
2023/12/05 21:24:06;;;;;;;;;10.75;10.75;;;;;22.88;29.15;101311.09;245345;1180;73276;-75
2023/12/05 21:29:11;;;;;;;;;11.33;11.33;;;;;22.87;29.16;101312.63;245220;1183;73302;-75
2023/12/05 21:34:15;;;;;;;;;11.75;11.75;;;;;22.83;29.10;101307.45;243363;1177;74439;-75
2023/12/05 21:39:20;;;;;;;;;11.00;11.00;;;;;22.69;29.43;101304.66;243305;1183;72543;-75
2023/12/05 21:44:24;;;;;;;;;10.67;10.33;;;;;22.59;29.62;101304.52;243407;1180;73119;-75
2023/12/05 21:49:28;;;;;;;;;11.00;10.50;;;;;22.53;29.81;101308.82;243482;1180;73025;-75
2023/12/05 21:54:33;;;;;;;;;10.67;10.67;;;;;22.50;30.07;101308.89;243374;1183;73482;-75
2023/12/05 21:59:39;;;;;;;;;11.00;11.00;;;;;22.46;30.04;101301.95;243750;1183;73337;-75
2023/12/05 22:04:43;;;;;;;;;11.50;11.50;;;;;22.49;29.84;101302.48;245307;1183;73851;-75
2023/12/05 22:09:47;;;;;;;;;10.50;10.50;;;;;22.62;29.62;101302.21;245380;1177;72860;-75
2023/12/05 22:14:51;;;;;;;;;10.75;10.75;;;;;22.70;29.50;101300.30;245366;1177;72896;-75
2023/12/05 22:19:56;;;;;;;;;8.75;8.75;;;;;22.74;29.63;101303.16;245394;1177;73214;-76
2023/12/05 22:25:00;;;;;;;;;13.25;10.25;;;;;22.78;29.39;101292.17;245336;1177;73438;-76
2023/12/05 22:30:04;;;;;;;;;11.00;10.33;;;;;22.79;29.37;101286.59;245390;1180;74376;-75
2023/12/05 22:35:10;;;;;;;;;9.75;9.75;;;;;22.79;29.66;101282.27;245381;1182;72884;-75
2023/12/05 22:40:14;;;;;;;;;12.33;12.33;;;;;22.80;29.57;101286.02;245360;1183;73378;-75
2023/12/05 22:45:19;;;;;;;;;12.50;12.00;;;;;22.80;29.62;101281.54;245373;1183;73937;-75
2023/12/05 22:50:23;;;;;;;;;10.25;10.25;;;;;22.80;29.50;101275.94;245407;1177;60667;-75
2023/12/05 22:55:28;;;;;;;;;10.00;10.00;;;;;22.80;29.44;101267.30;245417;1182;61216;-75